sensor_id;sensor_type;location;lat;lon;timestamp;P1;durP1;ratioP1;P2;durP2;ratioP2
34212;SDS011;20477;51.390;8.102;2023-06-01T00:01:46;13.35;;;4.47;;
34212;SDS011;20477;51.390;8.102;2023-06-01T00:04:14;8.23;;;4.00;;
34212;SDS011;20477;51.390;8.102;2023-06-01T00:06:43;9.75;;;4.03;;
34212;SDS011;20477;51.390;8.102;2023-06-01T00:09:11;10.02;;;4.15;;
34212;SDS011;20477;51.390;8.102;2023-06-01T00:11:40;8.35;;;4.03;;
34212;SDS011;20477;51.390;8.102;2023-06-01T00:14:09;7.63;;;3.92;;
34212;SDS011;20477;51.390;8.102;2023-06-01T00:16:37;11.55;;;4.22;;
34212;SDS011;20477;51.390;8.102;2023-06-01T00:19:06;7.25;;;4.15;;
34212;SDS011;20477;51.390;8.102;2023-06-01T00:21:34;11.63;;;4.25;;
34212;SDS011;20477;51.390;8.102;2023-06-01T00:24:03;9.73;;;4.32;;
34212;SDS011;20477;51.390;8.102;2023-06-01T00:26:31;7.25;;;4.28;;
34212;SDS011;20477;51.390;8.102;2023-06-01T00:28:59;11.60;;;3.92;;
34212;SDS011;20477;51.390;8.102;2023-06-01T00:31:29;12.23;;;4.07;;
34212;SDS011;20477;51.390;8.102;2023-06-01T00:33:57;9.23;;;3.95;;
34212;SDS011;20477;51.390;8.102;2023-06-01T00:36:25;7.00;;;4.50;;
34212;SDS011;20477;51.390;8.102;2023-06-01T00:38:54;10.02;;;4.25;;
34212;SDS011;20477;51.390;8.102;2023-06-01T00:41:28;8.25;;;4.28;;
34212;SDS011;20477;51.390;8.102;2023-06-01T00:43:56;21.70;;;4.93;;
34212;SDS011;20477;51.390;8.102;2023-06-01T00:46:24;14.30;;;4.53;;
34212;SDS011;20477;51.390;8.102;2023-06-01T00:48:54;10.15;;;4.55;;
34212;SDS011;20477;51.390;8.102;2023-06-01T00:51:23;12.55;;;4.38;;
34212;SDS011;20477;51.390;8.102;2023-06-01T00:53:51;11.07;;;4.00;;
34212;SDS011;20477;51.390;8.102;2023-06-01T00:56:20;8.98;;;4.15;;
34212;SDS011;20477;51.390;8.102;2023-06-01T00:58:48;8.45;;;3.40;;
34212;SDS011;20477;51.390;8.102;2023-06-01T01:01:17;11.75;;;4.25;;
34212;SDS011;20477;51.390;8.102;2023-06-01T01:03:49;7.75;;;4.43;;
34212;SDS011;20477;51.390;8.102;2023-06-01T01:06:27;9.68;;;3.55;;
34212;SDS011;20477;51.390;8.102;2023-06-01T01:09:06;8.80;;;4.03;;
34212;SDS011;20477;51.390;8.102;2023-06-01T01:11:38;7.72;;;4.20;;
34212;SDS011;20477;51.390;8.102;2023-06-01T01:14:08;13.70;;;5.38;;
34212;SDS011;20477;51.390;8.102;2023-06-01T01:16:39;22.03;;;4.97;;
34212;SDS011;20477;51.390;8.102;2023-06-01T01:19:17;12.77;;;4.47;;
34212;SDS011;20477;51.390;8.102;2023-06-01T01:22:02;17.55;;;4.40;;
34212;SDS011;20477;51.390;8.102;2023-06-01T01:24:41;9.88;;;4.07;;
34212;SDS011;20477;51.390;8.102;2023-06-01T01:27:17;15.63;;;4.88;;
34212;SDS011;20477;51.390;8.102;2023-06-01T01:29:53;7.13;;;4.13;;
34212;SDS011;20477;51.390;8.102;2023-06-01T01:32:22;7.70;;;4.32;;
34212;SDS011;20477;51.390;8.102;2023-06-01T01:34:51;8.00;;;5.07;;
34212;SDS011;20477;51.390;8.102;2023-06-01T01:37:21;10.77;;;4.78;;
34212;SDS011;20477;51.390;8.102;2023-06-01T01:39:49;12.68;;;4.93;;
34212;SDS011;20477;51.390;8.102;2023-06-01T01:42:18;10.80;;;4.40;;
34212;SDS011;20477;51.390;8.102;2023-06-01T01:44:46;6.82;;;4.45;;
34212;SDS011;20477;51.390;8.102;2023-06-01T01:47:17;7.65;;;4.50;;
34212;SDS011;20477;51.390;8.102;2023-06-01T01:49:50;17.92;;;4.43;;
34212;SDS011;20477;51.390;8.102;2023-06-01T01:52:25;11.57;;;5.13;;
34212;SDS011;20477;51.390;8.102;2023-06-01T01:57:24;11.82;;;4.10;;
34212;SDS011;20477;51.390;8.102;2023-06-01T01:59:53;8.57;;;4.57;;
34212;SDS011;20477;51.390;8.102;2023-06-01T02:02:24;14.30;;;4.82;;
34212;SDS011;20477;51.390;8.102;2023-06-01T02:04:52;6.90;;;4.30;;
34212;SDS011;20477;51.390;8.102;2023-06-01T02:07:20;10.70;;;4.60;;
34212;SDS011;20477;51.390;8.102;2023-06-01T02:09:48;15.43;;;4.53;;
34212;SDS011;20477;51.390;8.102;2023-06-01T02:12:17;9.80;;;4.38;;
34212;SDS011;20477;51.390;8.102;2023-06-01T02:14:45;9.48;;;4.13;;
34212;SDS011;20477;51.390;8.102;2023-06-01T02:17:13;8.30;;;5.28;;
34212;SDS011;20477;51.390;8.102;2023-06-01T02:19:43;15.35;;;4.95;;
34212;SDS011;20477;51.390;8.102;2023-06-01T02:22:11;7.18;;;4.47;;
34212;SDS011;20477;51.390;8.102;2023-06-01T02:24:39;9.88;;;4.95;;
34212;SDS011;20477;51.390;8.102;2023-06-01T02:27:08;4.80;;;4.00;;
34212;SDS011;20477;51.390;8.102;2023-06-01T02:29:36;14.77;;;4.30;;
34212;SDS011;20477;51.390;8.102;2023-06-01T02:32:04;12.02;;;4.82;;
34212;SDS011;20477;51.390;8.102;2023-06-01T02:34:33;7.53;;;4.15;;
34212;SDS011;20477;51.390;8.102;2023-06-01T02:37:04;7.85;;;4.53;;
34212;SDS011;20477;51.390;8.102;2023-06-01T02:39:33;9.40;;;4.45;;
34212;SDS011;20477;51.390;8.102;2023-06-01T02:42:01;9.50;;;4.68;;
34212;SDS011;20477;51.390;8.102;2023-06-01T02:44:29;10.52;;;4.60;;
34212;SDS011;20477;51.390;8.102;2023-06-01T02:46:57;10.55;;;4.32;;
34212;SDS011;20477;51.390;8.102;2023-06-01T02:49:25;10.38;;;4.32;;
34212;SDS011;20477;51.390;8.102;2023-06-01T02:51:53;14.98;;;4.45;;
34212;SDS011;20477;51.390;8.102;2023-06-01T02:54:23;11.65;;;4.40;;
34212;SDS011;20477;51.390;8.102;2023-06-01T02:56:51;9.90;;;4.20;;
34212;SDS011;20477;51.390;8.102;2023-06-01T02:59:19;12.63;;;4.75;;
34212;SDS011;20477;51.390;8.102;2023-06-01T03:01:47;9.25;;;4.40;;
34212;SDS011;20477;51.390;8.102;2023-06-01T03:04:16;9.73;;;4.45;;
34212;SDS011;20477;51.390;8.102;2023-06-01T03:06:45;7.68;;;3.90;;
34212;SDS011;20477;51.390;8.102;2023-06-01T03:09:15;8.95;;;4.53;;
34212;SDS011;20477;51.390;8.102;2023-06-01T03:11:45;8.13;;;4.95;;
34212;SDS011;20477;51.390;8.102;2023-06-01T03:14:13;11.40;;;4.78;;
34212;SDS011;20477;51.390;8.102;2023-06-01T03:16:41;6.30;;;4.53;;
34212;SDS011;20477;51.390;8.102;2023-06-01T03:19:09;11.00;;;4.93;;
34212;SDS011;20477;51.390;8.102;2023-06-01T03:21:38;10.10;;;5.43;;
34212;SDS011;20477;51.390;8.102;2023-06-01T03:24:07;10.65;;;4.80;;
34212;SDS011;20477;51.390;8.102;2023-06-01T03:26:35;19.63;;;5.50;;
34212;SDS011;20477;51.390;8.102;2023-06-01T03:29:04;12.82;;;5.75;;
34212;SDS011;20477;51.390;8.102;2023-06-01T03:31:32;13.90;;;4.75;;
34212;SDS011;20477;51.390;8.102;2023-06-01T03:34:01;7.82;;;4.80;;
34212;SDS011;20477;51.390;8.102;2023-06-01T03:36:29;8.75;;;5.05;;
34212;SDS011;20477;51.390;8.102;2023-06-01T03:38:58;7.05;;;4.85;;
34212;SDS011;20477;51.390;8.102;2023-06-01T03:41:26;24.55;;;5.38;;
34212;SDS011;20477;51.390;8.102;2023-06-01T03:43:54;11.38;;;5.63;;
34212;SDS011;20477;51.390;8.102;2023-06-01T03:46:23;12.45;;;6.53;;
34212;SDS011;20477;51.390;8.102;2023-06-01T03:48:52;15.00;;;7.55;;
34212;SDS011;20477;51.390;8.102;2023-06-01T03:51:20;18.25;;;8.02;;
34212;SDS011;20477;51.390;8.102;2023-06-01T03:53:48;21.67;;;8.52;;
34212;SDS011;20477;51.390;8.102;2023-06-01T03:56:16;11.65;;;7.70;;
34212;SDS011;20477;51.390;8.102;2023-06-01T03:58:45;27.52;;;16.23;;
34212;SDS011;20477;51.390;8.102;2023-06-01T04:01:14;24.00;;;13.25;;
34212;SDS011;20477;51.390;8.102;2023-06-01T04:03:44;29.20;;;14.25;;
34212;SDS011;20477;51.390;8.102;2023-06-01T04:06:14;30.83;;;15.30;;
34212;SDS011;20477;51.390;8.102;2023-06-01T04:08:43;24.00;;;13.25;;
34212;SDS011;20477;51.390;8.102;2023-06-01T04:11:16;29.48;;;16.23;;
34212;SDS011;20477;51.390;8.102;2023-06-01T04:13:44;23.40;;;13.32;;
34212;SDS011;20477;51.390;8.102;2023-06-01T04:16:12;28.85;;;14.93;;
34212;SDS011;20477;51.390;8.102;2023-06-01T04:18:41;26.50;;;15.05;;
34212;SDS011;20477;51.390;8.102;2023-06-01T04:21:11;37.20;;;16.50;;
34212;SDS011;20477;51.390;8.102;2023-06-01T04:23:39;30.35;;;17.77;;
34212;SDS011;20477;51.390;8.102;2023-06-01T04:26:08;39.83;;;16.30;;
34212;SDS011;20477;51.390;8.102;2023-06-01T04:28:37;27.83;;;16.75;;
34212;SDS011;20477;51.390;8.102;2023-06-01T04:31:10;33.15;;;16.60;;
34212;SDS011;20477;51.390;8.102;2023-06-01T04:33:43;32.05;;;17.75;;
34212;SDS011;20477;51.390;8.102;2023-06-01T04:36:13;34.38;;;18.35;;
34212;SDS011;20477;51.390;8.102;2023-06-01T04:38:47;39.70;;;20.10;;
34212;SDS011;20477;51.390;8.102;2023-06-01T04:41:18;29.88;;;18.13;;
34212;SDS011;20477;51.390;8.102;2023-06-01T04:43:48;38.90;;;19.92;;
34212;SDS011;20477;51.390;8.102;2023-06-01T04:46:18;33.80;;;17.75;;
34212;SDS011;20477;51.390;8.102;2023-06-01T04:48:52;33.28;;;19.35;;
34212;SDS011;20477;51.390;8.102;2023-06-01T04:51:22;29.58;;;18.13;;
34212;SDS011;20477;51.390;8.102;2023-06-01T04:53:51;31.58;;;18.30;;
34212;SDS011;20477;51.390;8.102;2023-06-01T04:56:20;34.10;;;19.27;;
34212;SDS011;20477;51.390;8.102;2023-06-01T04:58:51;36.10;;;19.23;;
34212;SDS011;20477;51.390;8.102;2023-06-01T05:01:20;31.55;;;19.83;;
34212;SDS011;20477;51.390;8.102;2023-06-01T05:03:52;30.73;;;17.37;;
34212;SDS011;20477;51.390;8.102;2023-06-01T05:06:23;35.22;;;18.20;;
34212;SDS011;20477;51.390;8.102;2023-06-01T05:08:52;32.75;;;19.17;;
34212;SDS011;20477;51.390;8.102;2023-06-01T05:11:20;31.52;;;18.55;;
34212;SDS011;20477;51.390;8.102;2023-06-01T05:13:49;60.20;;;22.52;;
34212;SDS011;20477;51.390;8.102;2023-06-01T05:16:19;36.33;;;21.35;;
34212;SDS011;20477;51.390;8.102;2023-06-01T05:18:47;35.30;;;21.00;;
34212;SDS011;20477;51.390;8.102;2023-06-01T05:21:17;36.17;;;18.80;;
34212;SDS011;20477;51.390;8.102;2023-06-01T05:23:47;50.08;;;22.52;;
34212;SDS011;20477;51.390;8.102;2023-06-01T05:26:15;38.45;;;20.88;;
34212;SDS011;20477;51.390;8.102;2023-06-01T05:28:43;39.13;;;20.67;;
34212;SDS011;20477;51.390;8.102;2023-06-01T05:31:12;40.33;;;22.00;;
34212;SDS011;20477;51.390;8.102;2023-06-01T05:33:40;45.38;;;21.13;;
34212;SDS011;20477;51.390;8.102;2023-06-01T05:36:08;33.13;;;20.23;;
34212;SDS011;20477;51.390;8.102;2023-06-01T05:38:37;37.05;;;20.10;;
34212;SDS011;20477;51.390;8.102;2023-06-01T05:41:06;33.10;;;20.17;;
34212;SDS011;20477;51.390;8.102;2023-06-01T05:43:34;33.15;;;21.35;;
34212;SDS011;20477;51.390;8.102;2023-06-01T05:46:03;32.53;;;20.27;;
34212;SDS011;20477;51.390;8.102;2023-06-01T05:48:33;37.28;;;20.73;;
34212;SDS011;20477;51.390;8.102;2023-06-01T05:51:04;40.22;;;20.67;;
34212;SDS011;20477;51.390;8.102;2023-06-01T05:53:32;43.38;;;21.70;;
34212;SDS011;20477;51.390;8.102;2023-06-01T05:56:00;37.08;;;21.05;;
34212;SDS011;20477;51.390;8.102;2023-06-01T05:58:30;40.35;;;21.48;;
34212;SDS011;20477;51.390;8.102;2023-06-01T06:00:58;40.28;;;23.98;;
34212;SDS011;20477;51.390;8.102;2023-06-01T06:03:27;33.30;;;21.38;;
34212;SDS011;20477;51.390;8.102;2023-06-01T06:05:56;35.28;;;21.55;;
34212;SDS011;20477;51.390;8.102;2023-06-01T06:08:24;34.60;;;22.00;;
34212;SDS011;20477;51.390;8.102;2023-06-01T06:10:53;34.60;;;20.60;;
34212;SDS011;20477;51.390;8.102;2023-06-01T06:13:22;39.90;;;19.98;;
34212;SDS011;20477;51.390;8.102;2023-06-01T06:15:52;39.63;;;21.67;;
34212;SDS011;20477;51.390;8.102;2023-06-01T06:18:21;36.25;;;21.05;;
34212;SDS011;20477;51.390;8.102;2023-06-01T06:20:49;37.33;;;21.27;;
34212;SDS011;20477;51.390;8.102;2023-06-01T06:23:17;41.50;;;24.45;;
34212;SDS011;20477;51.390;8.102;2023-06-01T06:25:47;36.05;;;22.75;;
34212;SDS011;20477;51.390;8.102;2023-06-01T06:28:15;44.30;;;23.63;;
34212;SDS011;20477;51.390;8.102;2023-06-01T06:30:43;34.58;;;21.05;;
34212;SDS011;20477;51.390;8.102;2023-06-01T06:33:13;32.72;;;20.08;;
34212;SDS011;20477;51.390;8.102;2023-06-01T06:35:42;30.45;;;18.70;;
34212;SDS011;20477;51.390;8.102;2023-06-01T06:38:11;29.05;;;19.20;;
34212;SDS011;20477;51.390;8.102;2023-06-01T06:40:39;32.50;;;20.20;;
34212;SDS011;20477;51.390;8.102;2023-06-01T06:43:07;34.10;;;20.58;;
34212;SDS011;20477;51.390;8.102;2023-06-01T06:45:36;29.02;;;19.00;;
34212;SDS011;20477;51.390;8.102;2023-06-01T06:48:04;30.35;;;19.85;;
34212;SDS011;20477;51.390;8.102;2023-06-01T06:50:34;29.67;;;18.27;;
34212;SDS011;20477;51.390;8.102;2023-06-01T06:53:03;27.85;;;18.40;;
34212;SDS011;20477;51.390;8.102;2023-06-01T06:55:31;30.92;;;19.60;;
34212;SDS011;20477;51.390;8.102;2023-06-01T06:58:00;30.98;;;19.42;;
34212;SDS011;20477;51.390;8.102;2023-06-01T07:00:28;26.40;;;18.00;;
34212;SDS011;20477;51.390;8.102;2023-06-01T07:02:56;31.35;;;17.20;;
34212;SDS011;20477;51.390;8.102;2023-06-01T07:05:26;24.58;;;16.30;;
34212;SDS011;20477;51.390;8.102;2023-06-01T07:07:56;28.65;;;18.38;;
34212;SDS011;20477;51.390;8.102;2023-06-01T07:10:24;27.90;;;17.40;;
34212;SDS011;20477;51.390;8.102;2023-06-01T07:12:53;25.33;;;17.20;;
34212;SDS011;20477;51.390;8.102;2023-06-01T07:15:21;26.23;;;16.92;;
34212;SDS011;20477;51.390;8.102;2023-06-01T07:17:49;27.38;;;17.27;;
34212;SDS011;20477;51.390;8.102;2023-06-01T07:20:17;22.70;;;16.80;;
34212;SDS011;20477;51.390;8.102;2023-06-01T07:22:45;31.05;;;17.25;;
34212;SDS011;20477;51.390;8.102;2023-06-01T07:25:17;28.55;;;18.60;;
34212;SDS011;20477;51.390;8.102;2023-06-01T07:27:45;24.38;;;15.98;;
34212;SDS011;20477;51.390;8.102;2023-06-01T07:30:14;27.38;;;16.75;;
34212;SDS011;20477;51.390;8.102;2023-06-01T07:32:43;24.10;;;17.77;;
34212;SDS011;20477;51.390;8.102;2023-06-01T07:35:11;25.02;;;16.20;;
34212;SDS011;20477;51.390;8.102;2023-06-01T07:37:39;28.83;;;17.38;;
34212;SDS011;20477;51.390;8.102;2023-06-01T07:40:08;22.75;;;15.88;;
34212;SDS011;20477;51.390;8.102;2023-06-01T07:42:39;21.48;;;16.73;;
34212;SDS011;20477;51.390;8.102;2023-06-01T07:45:07;22.42;;;15.32;;
34212;SDS011;20477;51.390;8.102;2023-06-01T07:47:37;23.15;;;16.27;;
34212;SDS011;20477;51.390;8.102;2023-06-01T07:50:06;25.60;;;17.23;;
34212;SDS011;20477;51.390;8.102;2023-06-01T07:52:35;19.98;;;15.45;;
34212;SDS011;20477;51.390;8.102;2023-06-01T07:55:04;25.15;;;15.98;;
34212;SDS011;20477;51.390;8.102;2023-06-01T07:57:35;23.90;;;17.45;;
34212;SDS011;20477;51.390;8.102;2023-06-01T08:00:06;24.50;;;17.20;;
34212;SDS011;20477;51.390;8.102;2023-06-01T08:02:37;25.80;;;17.02;;
34212;SDS011;20477;51.390;8.102;2023-06-01T08:05:07;24.58;;;17.08;;
34212;SDS011;20477;51.390;8.102;2023-06-01T08:07:36;27.67;;;17.20;;
34212;SDS011;20477;51.390;8.102;2023-06-01T08:10:05;27.75;;;17.08;;
34212;SDS011;20477;51.390;8.102;2023-06-01T08:12:34;31.20;;;17.77;;
34212;SDS011;20477;51.390;8.102;2023-06-01T08:15:04;25.48;;;16.13;;
34212;SDS011;20477;51.390;8.102;2023-06-01T08:17:33;23.90;;;16.85;;
34212;SDS011;20477;51.390;8.102;2023-06-01T08:20:02;23.30;;;16.98;;
34212;SDS011;20477;51.390;8.102;2023-06-01T08:22:34;24.17;;;15.50;;
34212;SDS011;20477;51.390;8.102;2023-06-01T08:25:03;25.10;;;16.77;;
34212;SDS011;20477;51.390;8.102;2023-06-01T08:27:32;26.45;;;16.55;;
34212;SDS011;20477;51.390;8.102;2023-06-01T08:30:00;24.95;;;16.52;;
34212;SDS011;20477;51.390;8.102;2023-06-01T08:32:29;26.83;;;18.00;;
34212;SDS011;20477;51.390;8.102;2023-06-01T08:34:58;26.15;;;17.52;;
34212;SDS011;20477;51.390;8.102;2023-06-01T08:37:26;31.27;;;18.15;;
34212;SDS011;20477;51.390;8.102;2023-06-01T08:39:56;27.55;;;18.75;;
34212;SDS011;20477;51.390;8.102;2023-06-01T08:42:30;23.65;;;17.40;;
34212;SDS011;20477;51.390;8.102;2023-06-01T08:45:12;29.48;;;18.13;;
34212;SDS011;20477;51.390;8.102;2023-06-01T08:47:42;29.42;;;19.35;;
34212;SDS011;20477;51.390;8.102;2023-06-01T08:50:11;28.15;;;19.10;;
34212;SDS011;20477;51.390;8.102;2023-06-01T08:52:41;31.48;;;19.98;;
34212;SDS011;20477;51.390;8.102;2023-06-01T08:55:09;29.83;;;19.52;;
34212;SDS011;20477;51.390;8.102;2023-06-01T08:57:39;25.90;;;17.92;;
34212;SDS011;20477;51.390;8.102;2023-06-01T09:00:08;26.35;;;18.42;;
34212;SDS011;20477;51.390;8.102;2023-06-01T09:02:42;29.77;;;19.60;;
34212;SDS011;20477;51.390;8.102;2023-06-01T09:05:11;26.33;;;19.27;;
34212;SDS011;20477;51.390;8.102;2023-06-01T09:07:40;25.88;;;18.45;;
34212;SDS011;20477;51.390;8.102;2023-06-01T09:10:08;26.73;;;19.58;;
34212;SDS011;20477;51.390;8.102;2023-06-01T09:12:38;26.10;;;18.25;;
34212;SDS011;20477;51.390;8.102;2023-06-01T09:15:08;29.73;;;18.80;;
34212;SDS011;20477;51.390;8.102;2023-06-01T09:17:38;28.25;;;21.15;;
34212;SDS011;20477;51.390;8.102;2023-06-01T09:20:12;31.77;;;21.83;;
34212;SDS011;20477;51.390;8.102;2023-06-01T09:22:41;34.42;;;23.08;;
34212;SDS011;20477;51.390;8.102;2023-06-01T09:25:10;31.73;;;21.80;;
34212;SDS011;20477;51.390;8.102;2023-06-01T09:27:44;32.88;;;23.38;;
34212;SDS011;20477;51.390;8.102;2023-06-01T09:30:13;34.70;;;25.00;;
34212;SDS011;20477;51.390;8.102;2023-06-01T09:32:42;40.05;;;25.70;;
34212;SDS011;20477;51.390;8.102;2023-06-01T09:35:15;36.72;;;25.08;;
34212;SDS011;20477;51.390;8.102;2023-06-01T09:37:53;34.70;;;25.13;;
34212;SDS011;20477;51.390;8.102;2023-06-01T09:40:22;39.85;;;24.77;;
34212;SDS011;20477;51.390;8.102;2023-06-01T09:42:51;39.15;;;27.08;;
34212;SDS011;20477;51.390;8.102;2023-06-01T09:45:19;38.75;;;26.75;;
34212;SDS011;20477;51.390;8.102;2023-06-01T09:47:48;40.55;;;26.80;;
34212;SDS011;20477;51.390;8.102;2023-06-01T09:50:33;46.60;;;30.27;;
34212;SDS011;20477;51.390;8.102;2023-06-01T09:53:02;51.92;;;31.80;;
34212;SDS011;20477;51.390;8.102;2023-06-01T09:55:30;48.70;;;31.30;;
34212;SDS011;20477;51.390;8.102;2023-06-01T10:00:46;39.00;;;30.25;;
34212;SDS011;20477;51.390;8.102;2023-06-01T10:03:15;38.38;;;28.45;;
34212;SDS011;20477;51.390;8.102;2023-06-01T10:05:46;44.10;;;31.95;;
34212;SDS011;20477;51.390;8.102;2023-06-01T10:08:15;47.65;;;31.90;;
34212;SDS011;20477;51.390;8.102;2023-06-01T10:10:45;39.45;;;28.63;;
34212;SDS011;20477;51.390;8.102;2023-06-01T10:13:14;39.58;;;29.75;;
34212;SDS011;20477;51.390;8.102;2023-06-01T10:15:43;39.15;;;27.42;;
34212;SDS011;20477;51.390;8.102;2023-06-01T10:18:12;43.95;;;29.00;;
34212;SDS011;20477;51.390;8.102;2023-06-01T10:20:40;38.70;;;28.23;;
34212;SDS011;20477;51.390;8.102;2023-06-01T10:23:10;37.67;;;25.75;;
34212;SDS011;20477;51.390;8.102;2023-06-01T10:25:55;37.33;;;24.77;;
34212;SDS011;20477;51.390;8.102;2023-06-01T10:28:25;39.97;;;25.65;;
34212;SDS011;20477;51.390;8.102;2023-06-01T10:33:57;35.30;;;25.52;;
34212;SDS011;20477;51.390;8.102;2023-06-01T10:36:36;36.13;;;24.95;;
34212;SDS011;20477;51.390;8.102;2023-06-01T10:39:44;36.75;;;25.42;;
34212;SDS011;20477;51.390;8.102;2023-06-01T10:48:05;31.40;;;22.50;;
34212;SDS011;20477;51.390;8.102;2023-06-01T10:50:34;38.05;;;23.45;;
34212;SDS011;20477;51.390;8.102;2023-06-01T11:01:45;32.65;;;20.20;;
34212;SDS011;20477;51.390;8.102;2023-06-01T11:04:14;37.58;;;21.40;;
34212;SDS011;20477;51.390;8.102;2023-06-01T11:06:43;33.30;;;19.92;;
34212;SDS011;20477;51.390;8.102;2023-06-01T11:09:11;29.48;;;20.10;;
34212;SDS011;20477;51.390;8.102;2023-06-01T11:11:57;32.65;;;18.98;;
34212;SDS011;20477;51.390;8.102;2023-06-01T11:14:27;32.83;;;19.73;;
34212;SDS011;20477;51.390;8.102;2023-06-01T11:19:57;33.92;;;19.10;;
34212;SDS011;20477;51.390;8.102;2023-06-01T11:22:34;39.80;;;21.20;;
34212;SDS011;20477;51.390;8.102;2023-06-01T11:25:04;36.60;;;20.88;;
34212;SDS011;20477;51.390;8.102;2023-06-01T11:27:36;29.83;;;19.30;;
34212;SDS011;20477;51.390;8.102;2023-06-01T11:30:09;36.45;;;20.73;;
34212;SDS011;20477;51.390;8.102;2023-06-01T11:32:38;31.30;;;18.83;;
34212;SDS011;20477;51.390;8.102;2023-06-01T11:35:18;30.33;;;18.48;;
34212;SDS011;20477;51.390;8.102;2023-06-01T11:37:51;32.65;;;19.00;;
34212;SDS011;20477;51.390;8.102;2023-06-01T11:40:23;28.30;;;18.55;;
34212;SDS011;20477;51.390;8.102;2023-06-01T11:43:01;33.30;;;20.35;;
34212;SDS011;20477;51.390;8.102;2023-06-01T11:45:29;29.15;;;19.45;;
34212;SDS011;20477;51.390;8.102;2023-06-01T11:47:57;29.65;;;19.80;;
34212;SDS011;20477;51.390;8.102;2023-06-01T11:50:26;30.38;;;18.35;;
34212;SDS011;20477;51.390;8.102;2023-06-01T11:52:55;25.10;;;17.85;;
34212;SDS011;20477;51.390;8.102;2023-06-01T11:55:24;28.38;;;19.52;;
34212;SDS011;20477;51.390;8.102;2023-06-01T11:57:52;28.05;;;19.95;;
34212;SDS011;20477;51.390;8.102;2023-06-01T12:00:22;31.10;;;19.25;;
34212;SDS011;20477;51.390;8.102;2023-06-01T12:03:04;32.47;;;21.25;;
34212;SDS011;20477;51.390;8.102;2023-06-01T12:05:38;30.20;;;17.52;;
34212;SDS011;20477;51.390;8.102;2023-06-01T12:08:12;31.17;;;18.55;;
34212;SDS011;20477;51.390;8.102;2023-06-01T12:10:41;29.25;;;18.20;;
34212;SDS011;20477;51.390;8.102;2023-06-01T12:13:11;29.73;;;18.33;;
34212;SDS011;20477;51.390;8.102;2023-06-01T12:15:41;32.65;;;18.38;;
34212;SDS011;20477;51.390;8.102;2023-06-01T12:18:09;29.70;;;18.05;;
34212;SDS011;20477;51.390;8.102;2023-06-01T12:20:39;27.95;;;17.55;;
34212;SDS011;20477;51.390;8.102;2023-06-01T12:23:12;25.25;;;16.48;;
34212;SDS011;20477;51.390;8.102;2023-06-01T12:25:52;30.00;;;17.25;;
34212;SDS011;20477;51.390;8.102;2023-06-01T12:28:21;24.42;;;17.50;;
34212;SDS011;20477;51.390;8.102;2023-06-01T12:33:40;29.40;;;16.10;;
34212;SDS011;20477;51.390;8.102;2023-06-01T12:36:09;28.70;;;16.75;;
34212;SDS011;20477;51.390;8.102;2023-06-01T12:38:49;23.45;;;16.33;;
34212;SDS011;20477;51.390;8.102;2023-06-01T12:41:18;24.08;;;15.75;;
34212;SDS011;20477;51.390;8.102;2023-06-01T12:43:47;23.70;;;14.18;;
34212;SDS011;20477;51.390;8.102;2023-06-01T12:46:21;24.58;;;13.48;;
34212;SDS011;20477;51.390;8.102;2023-06-01T12:48:50;25.30;;;15.60;;
34212;SDS011;20477;51.390;8.102;2023-06-01T12:51:20;26.58;;;15.55;;
34212;SDS011;20477;51.390;8.102;2023-06-01T12:53:48;24.08;;;14.57;;
34212;SDS011;20477;51.390;8.102;2023-06-01T12:56:18;27.85;;;16.55;;
34212;SDS011;20477;51.390;8.102;2023-06-01T12:58:46;30.70;;;14.65;;
34212;SDS011;20477;51.390;8.102;2023-06-01T13:01:14;25.00;;;14.07;;
34212;SDS011;20477;51.390;8.102;2023-06-01T13:03:44;20.73;;;13.55;;
34212;SDS011;20477;51.390;8.102;2023-06-01T13:06:12;20.40;;;14.05;;
34212;SDS011;20477;51.390;8.102;2023-06-01T13:08:43;19.80;;;13.90;;
34212;SDS011;20477;51.390;8.102;2023-06-01T13:11:11;22.85;;;13.82;;
34212;SDS011;20477;51.390;8.102;2023-06-01T13:13:40;18.90;;;12.15;;
34212;SDS011;20477;51.390;8.102;2023-06-01T13:16:10;20.00;;;13.05;;
34212;SDS011;20477;51.390;8.102;2023-06-01T13:18:39;24.08;;;12.75;;
34212;SDS011;20477;51.390;8.102;2023-06-01T13:21:09;22.08;;;13.93;;
34212;SDS011;20477;51.390;8.102;2023-06-01T13:23:37;22.52;;;12.40;;
34212;SDS011;20477;51.390;8.102;2023-06-01T13:26:06;23.77;;;12.82;;
34212;SDS011;20477;51.390;8.102;2023-06-01T13:28:35;20.65;;;13.00;;
34212;SDS011;20477;51.390;8.102;2023-06-01T13:31:04;29.17;;;12.57;;
34212;SDS011;20477;51.390;8.102;2023-06-01T13:33:32;18.90;;;12.20;;
34212;SDS011;20477;51.390;8.102;2023-06-01T13:36:00;17.48;;;12.23;;
34212;SDS011;20477;51.390;8.102;2023-06-01T13:38:30;29.98;;;14.13;;
34212;SDS011;20477;51.390;8.102;2023-06-01T13:40:58;21.23;;;13.25;;
34212;SDS011;20477;51.390;8.102;2023-06-01T13:43:27;21.70;;;12.60;;
34212;SDS011;20477;51.390;8.102;2023-06-01T13:45:55;24.50;;;14.02;;
34212;SDS011;20477;51.390;8.102;2023-06-01T13:48:24;24.42;;;13.32;;
34212;SDS011;20477;51.390;8.102;2023-06-01T13:50:52;22.60;;;12.48;;
34212;SDS011;20477;51.390;8.102;2023-06-01T13:53:20;25.27;;;12.98;;
34212;SDS011;20477;51.390;8.102;2023-06-01T13:55:50;19.50;;;11.75;;
34212;SDS011;20477;51.390;8.102;2023-06-01T13:58:18;21.55;;;11.63;;
34212;SDS011;20477;51.390;8.102;2023-06-01T14:00:46;24.30;;;13.90;;
34212;SDS011;20477;51.390;8.102;2023-06-01T14:03:14;24.15;;;12.82;;
34212;SDS011;20477;51.390;8.102;2023-06-01T14:05:45;20.95;;;13.23;;
34212;SDS011;20477;51.390;8.102;2023-06-01T14:08:21;25.63;;;14.25;;
34212;SDS011;20477;51.390;8.102;2023-06-01T14:10:51;21.25;;;12.90;;
34212;SDS011;20477;51.390;8.102;2023-06-01T14:13:19;27.38;;;13.98;;
34212;SDS011;20477;51.390;8.102;2023-06-01T14:15:47;27.50;;;14.27;;
34212;SDS011;20477;51.390;8.102;2023-06-01T14:18:15;18.63;;;12.07;;
34212;SDS011;20477;51.390;8.102;2023-06-01T14:20:44;24.13;;;12.95;;
34212;SDS011;20477;51.390;8.102;2023-06-01T14:23:12;22.13;;;13.05;;
34212;SDS011;20477;51.390;8.102;2023-06-01T14:25:40;22.75;;;13.57;;
34212;SDS011;20477;51.390;8.102;2023-06-01T14:28:09;19.25;;;11.98;;
34212;SDS011;20477;51.390;8.102;2023-06-01T14:30:38;18.38;;;12.60;;
34212;SDS011;20477;51.390;8.102;2023-06-01T14:33:06;27.88;;;12.98;;
34212;SDS011;20477;51.390;8.102;2023-06-01T14:35:34;23.83;;;13.68;;
34212;SDS011;20477;51.390;8.102;2023-06-01T14:38:02;24.17;;;15.00;;
34212;SDS011;20477;51.390;8.102;2023-06-01T14:40:30;24.38;;;14.82;;
34212;SDS011;20477;51.390;8.102;2023-06-01T14:42:59;19.50;;;13.15;;
34212;SDS011;20477;51.390;8.102;2023-06-01T14:45:28;23.98;;;13.63;;
34212;SDS011;20477;51.390;8.102;2023-06-01T14:47:57;23.52;;;12.10;;
34212;SDS011;20477;51.390;8.102;2023-06-01T14:50:26;18.27;;;13.02;;
34212;SDS011;20477;51.390;8.102;2023-06-01T14:52:54;28.45;;;12.88;;
34212;SDS011;20477;51.390;8.102;2023-06-01T14:55:25;21.58;;;12.75;;
34212;SDS011;20477;51.390;8.102;2023-06-01T14:57:54;21.48;;;13.25;;
34212;SDS011;20477;51.390;8.102;2023-06-01T15:00:22;23.45;;;13.00;;
34212;SDS011;20477;51.390;8.102;2023-06-01T15:02:52;20.48;;;12.82;;
34212;SDS011;20477;51.390;8.102;2023-06-01T15:05:20;22.60;;;13.43;;
34212;SDS011;20477;51.390;8.102;2023-06-01T15:07:48;20.70;;;12.35;;
34212;SDS011;20477;51.390;8.102;2023-06-01T15:10:16;21.08;;;12.32;;